sensor_id;sensor_type;location;lat;lon;timestamp;pressure;altitude;pressure_sealevel;temperature;humidity
39949;BME280;29070;48.102;-1.652;2023-03-13T00:00:34;100466.59;;;13.68;82.75
39949;BME280;29070;48.102;-1.652;2023-03-13T00:05:35;100452.41;;;13.69;82.34
39949;BME280;29070;48.102;-1.652;2023-03-13T00:10:36;100432.25;;;13.75;82.00
39949;BME280;29070;48.102;-1.652;2023-03-13T00:15:37;100431.00;;;13.77;82.06
39949;BME280;29070;48.102;-1.652;2023-03-13T00:20:37;100408.06;;;13.78;82.39
39949;BME280;29070;48.102;-1.652;2023-03-13T00:25:38;100402.78;;;13.78;81.77
39949;BME280;29070;48.102;-1.652;2023-03-13T00:30:38;100378.00;;;13.79;81.49
39949;BME280;29070;48.102;-1.652;2023-03-13T00:35:38;100395.59;;;13.85;81.05
39949;BME280;29070;48.102;-1.652;2023-03-13T00:40:39;100395.16;;;13.88;81.15
39949;BME280;29070;48.102;-1.652;2023-03-13T00:45:40;100387.25;;;13.88;80.60
39949;BME280;29070;48.102;-1.652;2023-03-13T00:50:40;100391.03;;;13.92;80.68
39949;BME280;29070;48.102;-1.652;2023-03-13T00:55:55;100375.41;;;13.90;80.57
39949;BME280;29070;48.102;-1.652;2023-03-13T01:00:56;100383.69;;;13.94;80.41
39949;BME280;29070;48.102;-1.652;2023-03-13T01:06:07;100400.88;;;13.97;80.01
39949;BME280;29070;48.102;-1.652;2023-03-13T01:11:09;100380.59;;;13.97;80.00
39949;BME280;29070;48.102;-1.652;2023-03-13T01:16:15;100383.25;;;13.97;79.87
39949;BME280;29070;48.102;-1.652;2023-03-13T01:21:17;100385.41;;;14.00;79.62
39949;BME280;29070;48.102;-1.652;2023-03-13T01:26:22;100373.84;;;14.01;79.33
39949;BME280;29070;48.102;-1.652;2023-03-13T01:31:29;100365.69;;;14.03;78.91
39949;BME280;29070;48.102;-1.652;2023-03-13T01:36:30;100374.97;;;14.05;79.22
39949;BME280;29070;48.102;-1.652;2023-03-13T01:41:30;100373.75;;;14.08;78.84
39949;BME280;29070;48.102;-1.652;2023-03-13T01:46:31;100370.63;;;14.11;78.60
39949;BME280;29070;48.102;-1.652;2023-03-13T01:51:34;100345.63;;;14.14;78.30
39949;BME280;29070;48.102;-1.652;2023-03-13T01:56:42;100354.13;;;14.16;78.38
39949;BME280;29070;48.102;-1.652;2023-03-13T02:01:45;100337.72;;;14.14;78.09
39949;BME280;29070;48.102;-1.652;2023-03-13T02:06:49;100322.09;;;14.12;77.96
39949;BME280;29070;48.102;-1.652;2023-03-13T02:12:11;100314.97;;;14.13;78.06
39949;BME280;29070;48.102;-1.652;2023-03-13T02:17:13;100311.78;;;14.10;78.18
39949;BME280;29070;48.102;-1.652;2023-03-13T02:22:31;100313.03;;;14.08;78.07
39949;BME280;29070;48.102;-1.652;2023-03-13T02:27:34;100308.56;;;14.08;78.27
39949;BME280;29070;48.102;-1.652;2023-03-13T02:32:35;100291.09;;;14.07;78.48
39949;BME280;29070;48.102;-1.652;2023-03-13T02:37:36;100267.72;;;13.99;78.73
39949;BME280;29070;48.102;-1.652;2023-03-13T02:42:40;100258.41;;;13.85;78.92
39949;BME280;29070;48.102;-1.652;2023-03-13T02:47:42;100264.94;;;13.70;79.25
39949;BME280;29070;48.102;-1.652;2023-03-13T02:52:45;100265.59;;;13.54;79.74
39949;BME280;29070;48.102;-1.652;2023-03-13T02:57:47;100266.56;;;13.41;80.00
39949;BME280;29070;48.102;-1.652;2023-03-13T03:02:48;100241.91;;;13.35;80.14
39949;BME280;29070;48.102;-1.652;2023-03-13T03:07:49;100233.25;;;13.28;80.45
39949;BME280;29070;48.102;-1.652;2023-03-13T03:12:50;100231.09;;;13.25;80.70
39949;BME280;29070;48.102;-1.652;2023-03-13T03:17:50;100225.69;;;13.20;81.20
39949;BME280;29070;48.102;-1.652;2023-03-13T03:22:50;100209.28;;;13.18;81.43
39949;BME280;29070;48.102;-1.652;2023-03-13T03:27:51;100205.84;;;13.18;81.72
39949;BME280;29070;48.102;-1.652;2023-03-13T03:32:51;100191.66;;;13.19;81.87
39949;BME280;29070;48.102;-1.652;2023-03-13T03:37:51;100193.47;;;13.18;82.58
39949;BME280;29070;48.102;-1.652;2023-03-13T03:42:52;100190.50;;;13.14;83.05
39949;BME280;29070;48.102;-1.652;2023-03-13T03:47:52;100180.31;;;13.18;82.82
39949;BME280;29070;48.102;-1.652;2023-03-13T03:52:52;100186.94;;;13.21;83.04
39949;BME280;29070;48.102;-1.652;2023-03-13T03:57:53;100184.97;;;13.16;83.43
39949;BME280;29070;48.102;-1.652;2023-03-13T04:02:53;100173.41;;;13.17;83.50
39949;BME280;29070;48.102;-1.652;2023-03-13T04:07:55;100167.56;;;13.15;83.49
39949;BME280;29070;48.102;-1.652;2023-03-13T04:12:55;100169.41;;;13.14;83.82
39949;BME280;29070;48.102;-1.652;2023-03-13T04:17:55;100172.59;;;13.05;84.96
39949;BME280;29070;48.102;-1.652;2023-03-13T04:22:56;100170.53;;;13.07;84.68
39949;BME280;29070;48.102;-1.652;2023-03-13T04:27:56;100168.09;;;13.05;84.70
39949;BME280;29070;48.102;-1.652;2023-03-13T04:32:56;100178.66;;;13.05;84.83
39949;BME280;29070;48.102;-1.652;2023-03-13T04:37:57;100177.41;;;13.08;85.11
39949;BME280;29070;48.102;-1.652;2023-03-13T04:42:57;100162.63;;;13.07;85.10
39949;BME280;29070;48.102;-1.652;2023-03-13T04:47:58;100175.00;;;13.06;85.21
39949;BME280;29070;48.102;-1.652;2023-03-13T04:52:58;100170.53;;;13.07;85.32
39949;BME280;29070;48.102;-1.652;2023-03-13T04:57:58;100170.97;;;13.04;85.51
39949;BME280;29070;48.102;-1.652;2023-03-13T05:02:59;100164.09;;;13.03;85.27
39949;BME280;29070;48.102;-1.652;2023-03-13T05:08:00;100150.34;;;13.01;85.49
39949;BME280;29070;48.102;-1.652;2023-03-13T05:13:00;100158.63;;;13.04;85.15
39949;BME280;29070;48.102;-1.652;2023-03-13T05:18:00;100151.16;;;13.01;85.07
39949;BME280;29070;48.102;-1.652;2023-03-13T05:23:01;100148.38;;;12.96;84.79
39949;BME280;29070;48.102;-1.652;2023-03-13T05:28:02;100130.63;;;12.91;84.94
39949;BME280;29070;48.102;-1.652;2023-03-13T05:33:02;100129.00;;;12.90;85.06
39949;BME280;29070;48.102;-1.652;2023-03-13T05:38:03;100124.31;;;12.92;85.03
39949;BME280;29070;48.102;-1.652;2023-03-13T05:43:03;100122.72;;;12.91;84.98
39949;BME280;29070;48.102;-1.652;2023-03-13T05:48:04;100121.13;;;12.90;85.32
39949;BME280;29070;48.102;-1.652;2023-03-13T05:53:05;100126.50;;;12.95;85.16
39949;BME280;29070;48.102;-1.652;2023-03-13T05:58:05;100119.97;;;12.98;85.02
39949;BME280;29070;48.102;-1.652;2023-03-13T06:03:05;100107.03;;;12.96;84.94
39949;BME280;29070;48.102;-1.652;2023-03-13T06:08:06;100094.91;;;12.95;84.94
39949;BME280;29070;48.102;-1.652;2023-03-13T06:13:06;100092.13;;;12.90;84.73
39949;BME280;29070;48.102;-1.652;2023-03-13T06:18:06;100075.75;;;12.88;84.65
39949;BME280;29070;48.102;-1.652;2023-03-13T06:23:07;100076.19;;;12.85;84.79
39949;BME280;29070;48.102;-1.652;2023-03-13T06:28:07;100071.97;;;12.84;84.99
39949;BME280;29070;48.102;-1.652;2023-03-13T06:33:07;100063.59;;;12.87;84.86
39949;BME280;29070;48.102;-1.652;2023-03-13T06:38:09;100055.72;;;12.87;84.84
39949;BME280;29070;48.102;-1.652;2023-03-13T06:43:09;100044.16;;;12.88;84.79
39949;BME280;29070;48.102;-1.652;2023-03-13T06:48:10;100034.06;;;12.85;84.65
39949;BME280;29070;48.102;-1.652;2023-03-13T06:53:15;100031.44;;;12.85;84.61
39949;BME280;29070;48.102;-1.652;2023-03-13T06:58:17;100026.16;;;12.85;84.62
39949;BME280;29070;48.102;-1.652;2023-03-13T07:03:17;100034.28;;;12.84;84.47
39949;BME280;29070;48.102;-1.652;2023-03-13T07:08:18;100027.44;;;12.83;84.41
39949;BME280;29070;48.102;-1.652;2023-03-13T07:13:18;100025.47;;;12.78;84.02
39949;BME280;29070;48.102;-1.652;2023-03-13T07:18:22;100000.75;;;12.79;84.20
39949;BME280;29070;48.102;-1.652;2023-03-13T07:23:23;99993.88;;;12.78;84.02
39949;BME280;29070;48.102;-1.652;2023-03-13T07:28:25;99995.94;;;12.76;84.04
39949;BME280;29070;48.102;-1.652;2023-03-13T07:33:26;100005.66;;;12.75;83.85
39949;BME280;29070;48.102;-1.652;2023-03-13T07:38:26;99993.50;;;12.74;83.84
39949;BME280;29070;48.102;-1.652;2023-03-13T07:43:26;99997.53;;;12.77;83.80
39949;BME280;29070;48.102;-1.652;2023-03-13T07:48:36;99983.22;;;12.73;83.78
39949;BME280;29070;48.102;-1.652;2023-03-13T07:53:37;99984.38;;;12.77;83.79
39949;BME280;29070;48.102;-1.652;2023-03-13T07:58:39;99973.16;;;12.82;83.83
39949;BME280;29070;48.102;-1.652;2023-03-13T08:03:40;99984.81;;;12.86;83.70
39949;BME280;29070;48.102;-1.652;2023-03-13T08:08:40;99975.78;;;12.93;83.64
39949;BME280;29070;48.102;-1.652;2023-03-13T08:13:41;99969.59;;;13.00;83.39
39949;BME280;29070;48.102;-1.652;2023-03-13T08:18:47;99970.75;;;13.04;83.21
39949;BME280;29070;48.102;-1.652;2023-03-13T08:23:48;99958.50;;;13.09;82.90
39949;BME280;29070;48.102;-1.652;2023-03-13T08:28:53;99945.31;;;13.21;83.13
39949;BME280;29070;48.102;-1.652;2023-03-13T08:33:54;99945.56;;;13.31;82.93
39949;BME280;29070;48.102;-1.652;2023-03-13T08:38:57;99935.00;;;13.43;82.91
39949;BME280;29070;48.102;-1.652;2023-03-13T08:43:59;99943.56;;;13.50;82.84
39949;BME280;29070;48.102;-1.652;2023-03-13T08:49:00;99938.53;;;13.49;82.13
39949;BME280;29070;48.102;-1.652;2023-03-13T08:54:01;99929.00;;;13.48;81.79
39949;BME280;29070;48.102;-1.652;2023-03-13T08:59:03;99922.16;;;13.47;81.27
39949;BME280;29070;48.102;-1.652;2023-03-13T09:04:05;99912.28;;;13.54;80.53
39949;BME280;29070;48.102;-1.652;2023-03-13T09:09:06;99907.28;;;13.69;80.41
39949;BME280;29070;48.102;-1.652;2023-03-13T09:14:07;99908.97;;;13.76;79.37
39949;BME280;29070;48.102;-1.652;2023-03-13T09:19:07;99891.81;;;13.90;79.62
39949;BME280;29070;48.102;-1.652;2023-03-13T09:24:08;99885.81;;;13.95;78.87
39949;BME280;29070;48.102;-1.652;2023-03-13T09:29:08;99884.25;;;14.10;78.33
39949;BME280;29070;48.102;-1.652;2023-03-13T09:34:09;99874.50;;;14.28;77.90
39949;BME280;29070;48.102;-1.652;2023-03-13T09:39:09;99890.56;;;14.26;76.83
39949;BME280;29070;48.102;-1.652;2023-03-13T09:44:31;99891.38;;;14.27;75.00
39949;BME280;29070;48.102;-1.652;2023-03-13T09:49:51;99870.34;;;14.32;74.95
39949;BME280;29070;48.102;-1.652;2023-03-13T10:00:12;99855.69;;;14.41;70.47
39949;BME280;29070;48.102;-1.652;2023-03-13T10:05:23;99864.44;;;14.42;71.21
39949;BME280;29070;48.102;-1.652;2023-03-13T10:10:32;99874.16;;;14.41;72.39
39949;BME280;29070;48.102;-1.652;2023-03-13T10:15:44;99869.72;;;14.42;73.61
39949;BME280;29070;48.102;-1.652;2023-03-13T10:20:49;99878.66;;;14.41;73.38
39949;BME280;29070;48.102;-1.652;2023-03-13T10:25:50;99856.94;;;14.56;73.63
39949;BME280;29070;48.102;-1.652;2023-03-13T10:31:01;99861.47;;;14.94;72.78
39949;BME280;29070;48.102;-1.652;2023-03-13T10:36:09;99847.28;;;15.22;71.89
39949;BME280;29070;48.102;-1.652;2023-03-13T10:41:22;99854.47;;;15.49;70.26
39949;BME280;29070;48.102;-1.652;2023-03-13T10:46:30;99845.50;;;15.55;70.98
39949;BME280;29070;48.102;-1.652;2023-03-13T10:51:37;99864.69;;;15.68;71.38
39949;BME280;29070;48.102;-1.652;2023-03-13T10:56:37;99847.34;;;15.77;71.27
39949;BME280;29070;48.102;-1.652;2023-03-13T11:01:41;99820.88;;;15.77;70.67
39949;BME280;29070;48.102;-1.652;2023-03-13T11:06:41;99833.91;;;15.56;69.19
39949;BME280;29070;48.102;-1.652;2023-03-13T11:11:52;99822.72;;;15.27;68.80
39949;BME280;29070;48.102;-1.652;2023-03-13T11:17:22;99823.78;;;15.04;68.05
39949;BME280;29070;48.102;-1.652;2023-03-13T11:22:29;99809.38;;;15.12;64.57
39949;BME280;29070;48.102;-1.652;2023-03-13T11:27:49;99799.16;;;14.98;64.47
39949;BME280;29070;48.102;-1.652;2023-03-13T11:32:55;99798.25;;;14.87;66.40
39949;BME280;29070;48.102;-1.652;2023-03-13T11:38:05;99783.94;;;14.83;67.27
39949;BME280;29070;48.102;-1.652;2023-03-13T12:04:43;99721.69;;;15.47;62.64
39949;BME280;29070;48.102;-1.652;2023-03-13T12:09:49;99702.44;;;15.89;65.15
39949;BME280;29070;48.102;-1.652;2023-03-13T12:14:58;99697.28;;;16.10;63.59
39949;BME280;29070;48.102;-1.652;2023-03-13T12:25:12;99689.44;;;16.35;63.04
39949;BME280;29070;48.102;-1.652;2023-03-13T12:35:25;99685.13;;;16.19;62.00
39949;BME280;29070;48.102;-1.652;2023-03-13T12:40:38;99658.63;;;16.14;61.92
39949;BME280;29070;48.102;-1.652;2023-03-13T12:51:00;99633.84;;;16.41;59.09
39949;BME280;29070;48.102;-1.652;2023-03-13T12:56:32;99614.78;;;16.38;57.58
39949;BME280;29070;48.102;-1.652;2023-03-13T13:01:41;99613.69;;;16.34;60.86
39949;BME280;29070;48.102;-1.652;2023-03-13T13:07:05;99609.44;;;16.23;59.12
39949;BME280;29070;48.102;-1.652;2023-03-13T13:12:21;99583.38;;;15.94;59.14
39949;BME280;29070;48.102;-1.652;2023-03-13T13:17:34;99572.34;;;16.18;60.57
39949;BME280;29070;48.102;-1.652;2023-03-13T13:32:40;99540.00;;;16.06;60.39
39949;BME280;29070;48.102;-1.652;2023-03-13T13:37:42;99521.47;;;16.06;60.19
39949;BME280;29070;48.102;-1.652;2023-03-13T13:42:57;99536.34;;;16.17;59.17
39949;BME280;29070;48.102;-1.652;2023-03-13T13:48:25;99519.94;;;16.30;58.39
39949;BME280;29070;48.102;-1.652;2023-03-13T13:53:31;99506.94;;;16.24;58.73
39949;BME280;29070;48.102;-1.652;2023-03-13T13:58:32;99496.84;;;16.00;56.95
39949;BME280;29070;48.102;-1.652;2023-03-13T14:03:39;99491.81;;;15.88;59.55
39949;BME280;29070;48.102;-1.652;2023-03-13T14:08:43;99484.13;;;16.02;59.93
39949;BME280;29070;48.102;-1.652;2023-03-13T14:14:14;99476.25;;;16.17;59.38
39949;BME280;29070;48.102;-1.652;2023-03-13T14:19:38;99475.16;;;16.03;58.69
39949;BME280;29070;48.102;-1.652;2023-03-13T14:24:39;99477.28;;;16.06;59.99
39949;BME280;29070;48.102;-1.652;2023-03-13T14:29:40;99456.34;;;15.99;59.76
39949;BME280;29070;48.102;-1.652;2023-03-13T14:34:40;99437.28;;;15.92;60.09
39949;BME280;29070;48.102;-1.652;2023-03-13T14:39:44;99414.00;;;15.94;60.07
39949;BME280;29070;48.102;-1.652;2023-03-13T14:44:46;99414.53;;;15.91;60.42
39949;BME280;29070;48.102;-1.652;2023-03-13T14:49:54;99403.94;;;15.76;60.61
39949;BME280;29070;48.102;-1.652;2023-03-13T14:55:04;99378.53;;;15.85;60.63
39949;BME280;29070;48.102;-1.652;2023-03-13T15:05:31;99373.97;;;15.60;60.98
39949;BME280;29070;48.102;-1.652;2023-03-13T15:10:34;99383.19;;;15.47;61.22
39949;BME280;29070;48.102;-1.652;2023-03-13T15:15:39;99363.06;;;15.41;61.58
39949;BME280;29070;48.102;-1.652;2023-03-13T15:20:40;99354.84;;;15.32;61.62
39949;BME280;29070;48.102;-1.652;2023-03-13T15:25:40;99369.31;;;15.14;61.75
39949;BME280;29070;48.102;-1.652;2023-03-13T15:30:41;99356.06;;;15.09;62.20
39949;BME280;29070;48.102;-1.652;2023-03-13T15:35:42;99352.84;;;14.97;62.45
39949;BME280;29070;48.102;-1.652;2023-03-13T15:40:43;99337.47;;;14.83;62.53
39949;BME280;29070;48.102;-1.652;2023-03-13T15:45:45;99320.53;;;14.74;62.78
39949;BME280;29070;48.102;-1.652;2023-03-13T15:50:56;99324.69;;;14.60;63.66
39949;BME280;29070;48.102;-1.652;2023-03-13T15:56:01;99295.19;;;14.36;64.06
39949;BME280;29070;48.102;-1.652;2023-03-13T16:01:02;99308.97;;;14.05;65.31
39949;BME280;29070;48.102;-1.652;2023-03-13T16:06:11;99298.41;;;14.05;66.96
39949;BME280;29070;48.102;-1.652;2023-03-13T16:11:14;99291.06;;;14.13;65.91
39949;BME280;29070;48.102;-1.652;2023-03-13T16:16:23;99273.97;;;14.15;65.97
39949;BME280;29070;48.102;-1.652;2023-03-13T16:21:29;99275.25;;;14.13;65.23
39949;BME280;29070;48.102;-1.652;2023-03-13T16:26:30;99279.97;;;14.10;65.05
39949;BME280;29070;48.102;-1.652;2023-03-13T16:31:31;99283.97;;;14.13;65.37
39949;BME280;29070;48.102;-1.652;2023-03-13T16:36:33;99280.03;;;14.16;65.22
39949;BME280;29070;48.102;-1.652;2023-03-13T16:41:34;99269.53;;;14.26;65.18
39949;BME280;29070;48.102;-1.652;2023-03-13T16:46:36;99270.75;;;14.08;65.13
39949;BME280;29070;48.102;-1.652;2023-03-13T16:51:37;99279.66;;;14.02;65.29
39949;BME280;29070;48.102;-1.652;2023-03-13T16:56:40;99280.78;;;13.79;65.64
39949;BME280;29070;48.102;-1.652;2023-03-13T17:01:42;99294.91;;;13.62;65.64
39949;BME280;29070;48.102;-1.652;2023-03-13T17:06:43;99281.91;;;13.50;66.12
39949;BME280;29070;48.102;-1.652;2023-03-13T17:11:46;99295.75;;;13.41;66.72
39949;BME280;29070;48.102;-1.652;2023-03-13T17:16:47;99283.72;;;13.01;67.61
39949;BME280;29070;48.102;-1.652;2023-03-13T17:21:47;99270.75;;;12.72;68.29
39949;BME280;29070;48.102;-1.652;2023-03-13T17:26:48;99273.72;;;12.58;68.78
39949;BME280;29070;48.102;-1.652;2023-03-13T17:31:49;99277.25;;;12.47;68.69
39949;BME280;29070;48.102;-1.652;2023-03-13T17:36:49;99274.16;;;12.33;68.53
39949;BME280;29070;48.102;-1.652;2023-03-13T17:41:49;99296.44;;;12.26;68.92
39949;BME280;29070;48.102;-1.652;2023-03-13T17:46:50;99280.41;;;12.10;69.36
39949;BME280;29070;48.102;-1.652;2023-03-13T17:51:50;99296.75;;;12.12;69.39
39949;BME280;29070;48.102;-1.652;2023-03-13T17:56:51;99277.22;;;12.08;69.80
39949;BME280;29070;48.102;-1.652;2023-03-13T18:01:52;99265.59;;;12.04;69.85
39949;BME280;29070;48.102;-1.652;2023-03-13T18:06:52;99262.97;;;12.04;69.88
39949;BME280;29070;48.102;-1.652;2023-03-13T18:11:52;99269.81;;;12.05;70.15
39949;BME280;29070;48.102;-1.652;2023-03-13T18:16:53;99244.00;;;12.02;70.21
39949;BME280;29070;48.102;-1.652;2023-03-13T18:21:56;99244.00;;;12.02;70.44
39949;BME280;29070;48.102;-1.652;2023-03-13T18:26:56;99233.50;;;12.02;70.72
39949;BME280;29070;48.102;-1.652;2023-03-13T18:31:58;99212.16;;;11.98;70.90
39949;BME280;29070;48.102;-1.652;2023-03-13T18:37:00;99202.41;;;11.99;71.00
39949;BME280;29070;48.102;-1.652;2023-03-13T18:42:03;99196.09;;;12.00;71.00
39949;BME280;29070;48.102;-1.652;2023-03-13T18:47:10;99168.94;;;11.94;71.40
39949;BME280;29070;48.102;-1.652;2023-03-13T18:52:11;99158.31;;;11.89;71.74
39949;BME280;29070;48.102;-1.652;2023-03-13T18:57:14;99150.22;;;11.91;71.82
39949;BME280;29070;48.102;-1.652;2023-03-13T19:02:16;99135.94;;;11.87;72.19
39949;BME280;29070;48.102;-1.652;2023-03-13T19:07:26;99123.84;;;11.86;72.71
39949;BME280;29070;48.102;-1.652;2023-03-13T19:12:27;99131.69;;;11.80;72.59
39949;BME280;29070;48.102;-1.652;2023-03-13T19:17:28;99136.63;;;11.77;72.80
39949;BME280;29070;48.102;-1.652;2023-03-13T19:22:30;99121.56;;;11.72;73.19
39949;BME280;29070;48.102;-1.652;2023-03-13T19:27:30;99137.03;;;11.69;73.53
39949;BME280;29070;48.102;-1.652;2023-03-13T19:32:30;99124.13;;;11.67;73.61
39949;BME280;29070;48.102;-1.652;2023-03-13T19:37:31;99126.75;;;11.67;73.89
39949;BME280;29070;48.102;-1.652;2023-03-13T19:42:31;99130.91;;;11.63;74.47
39949;BME280;29070;48.102;-1.652;2023-03-13T19:47:34;99133.44;;;11.58;74.49
39949;BME280;29070;48.102;-1.652;2023-03-13T19:52:34;99134.38;;;11.52;75.01
39949;BME280;29070;48.102;-1.652;2023-03-13T19:57:35;99122.78;;;11.48;74.97
39949;BME280;29070;48.102;-1.652;2023-03-13T20:02:36;99119.91;;;11.49;75.13
39949;BME280;29070;48.102;-1.652;2023-03-13T20:07:36;99115.44;;;11.50;75.52
39949;BME280;29070;48.102;-1.652;2023-03-13T20:12:37;99126.47;;;11.47;75.58
39949;BME280;29070;48.102;-1.652;2023-03-13T20:17:38;99121.53;;;11.50;75.61
39949;BME280;29070;48.102;-1.652;2023-03-13T20:22:38;99120.47;;;11.51;75.46
39949;BME280;29070;48.102;-1.652;2023-03-13T20:27:39;99123.31;;;11.50;75.77
39949;BME280;29070;48.102;-1.652;2023-03-13T20:32:39;99125.41;;;11.48;75.91
39949;BME280;29070;48.102;-1.652;2023-03-13T20:37:40;99126.47;;;11.47;76.20
39949;BME280;29070;48.102;-1.652;2023-03-13T20:42:40;99134.91;;;11.49;76.18
39949;BME280;29070;48.102;-1.652;2023-03-13T20:47:41;99142.69;;;11.43;76.76
39949;BME280;29070;48.102;-1.652;2023-03-13T20:52:41;99145.31;;;11.43;76.51
39949;BME280;29070;48.102;-1.652;2023-03-13T20:57:41;99132.19;;;11.43;76.86
39949;BME280;29070;48.102;-1.652;2023-03-13T21:02:42;99140.94;;;11.49;76.80
39949;BME280;29070;48.102;-1.652;2023-03-13T21:07:42;99143.09;;;11.52;76.65
39949;BME280;29070;48.102;-1.652;2023-03-13T21:12:43;99145.88;;;11.45;77.11
39949;BME280;29070;48.102;-1.652;2023-03-13T21:17:44;99141.59;;;11.39;77.28
39949;BME280;29070;48.102;-1.652;2023-03-13T21:22:44;99148.88;;;11.37;77.71
39949;BME280;29070;48.102;-1.652;2023-03-13T21:27:44;99158.75;;;11.30;78.01
39949;BME280;29070;48.102;-1.652;2023-03-13T21:32:45;99148.50;;;11.29;78.02
39949;BME280;29070;48.102;-1.652;2023-03-13T21:37:46;99152.72;;;11.30;78.16
39949;BME280;29070;48.102;-1.652;2023-03-13T21:42:46;99149.28;;;11.29;78.58
39949;BME280;29070;48.102;-1.652;2023-03-13T21:47:47;99150.00;;;11.24;78.87
39949;BME280;29070;48.102;-1.652;2023-03-13T21:52:47;99157.09;;;11.24;78.96
39949;BME280;29070;48.102;-1.652;2023-03-13T21:57:47;99155.25;;;11.24;79.16
39949;BME280;29070;48.102;-1.652;2023-03-13T22:02:48;99173.97;;;11.28;78.89
39949;BME280;29070;48.102;-1.652;2023-03-13T22:07:48;99160.59;;;11.30;79.12
39949;BME280;29070;48.102;-1.652;2023-03-13T22:12:48;99168.16;;;11.26;79.30
39949;BME280;29070;48.102;-1.652;2023-03-13T22:17:49;99164.97;;;11.24;79.40
39949;BME280;29070;48.102;-1.652;2023-03-13T22:22:50;99167.03;;;11.22;79.63
39949;BME280;29070;48.102;-1.652;2023-03-13T22:27:51;99166.25;;;11.21;80.19
39949;BME280;29070;48.102;-1.652;2023-03-13T22:32:51;99171.00;;;11.24;80.08
39949;BME280;29070;48.102;-1.652;2023-03-13T22:37:52;99188.06;;;11.22;80.57
39949;BME280;29070;48.102;-1.652;2023-03-13T22:42:52;99179.13;;;11.23;80.48
39949;BME280;29070;48.102;-1.652;2023-03-13T22:47:53;99178.66;;;11.26;80.36
39949;BME280;29070;48.102;-1.652;2023-03-13T22:52:53;99182.66;;;11.29;80.50
39949;BME280;29070;48.102;-1.652;2023-03-13T22:57:54;99200.00;;;11.30;80.46
39949;BME280;29070;48.102;-1.652;2023-03-13T23:02:54;99206.03;;;11.30;80.76
39949;BME280;29070;48.102;-1.652;2023-03-13T23:07:54;99206.13;;;11.35;80.78
39949;BME280;29070;48.102;-1.652;2023-03-13T23:12:55;99212.53;;;11.39;80.56
39949;BME280;29070;48.102;-1.652;2023-03-13T23:17:55;99219.25;;;11.35;80.66
39949;BME280;29070;48.102;-1.652;2023-03-13T23:22:55;99227.63;;;11.32;81.18
39949;BME280;29070;48.102;-1.652;2023-03-13T23:27:56;99228.19;;;11.34;80.97
39949;BME280;29070;48.102;-1.652;2023-03-13T23:32:57;99242.66;;;11.37;81.00
39949;BME280;29070;48.102;-1.652;2023-03-13T23:37:57;99249.28;;;11.39;81.14
39949;BME280;29070;48.102;-1.652;2023-03-13T23:42:57;99256.91;;;11.41;81.14
39949;BME280;29070;48.102;-1.652;2023-03-13T23:47:58;99254.88;;;11.43;81.03
39949;BME280;29070;48.102;-1.652;2023-03-13T23:52:58;99254.06;;;11.42;81.08
39949;BME280;29070;48.102;-1.652;2023-03-13T23:57:58;99268.34;;;11.47;81.14
